sensor_id;sensor_type;location;lat;lon;timestamp;temperature;humidity
67502;SHT30;54349;52.528;19.760;2023-03-29T00:01:29;21.46;33.66
67502;SHT30;54349;52.528;19.760;2023-03-29T00:04:05;21.46;33.68
67502;SHT30;54349;52.528;19.760;2023-03-29T00:06:34;21.47;33.70
67502;SHT30;54349;52.528;19.760;2023-03-29T00:09:03;21.48;33.65
67502;SHT30;54349;52.528;19.760;2023-03-29T00:11:36;21.46;33.64
67502;SHT30;54349;52.528;19.760;2023-03-29T00:14:05;21.46;33.59
67502;SHT30;54349;52.528;19.760;2023-03-29T00:16:34;21.45;33.48
67502;SHT30;54349;52.528;19.760;2023-03-29T00:19:04;21.44;33.41
67502;SHT30;54349;52.528;19.760;2023-03-29T00:21:36;21.43;33.43
67502;SHT30;54349;52.528;19.760;2023-03-29T00:24:04;21.42;33.45
67502;SHT30;54349;52.528;19.760;2023-03-29T00:26:33;21.42;33.49
67502;SHT30;54349;52.528;19.760;2023-03-29T00:29:02;21.41;33.36
67502;SHT30;54349;52.528;19.760;2023-03-29T00:31:32;21.42;33.37
67502;SHT30;54349;52.528;19.760;2023-03-29T00:34:00;21.39;33.42
67502;SHT30;54349;52.528;19.760;2023-03-29T00:36:28;21.39;33.38
67502;SHT30;54349;52.528;19.760;2023-03-29T00:38:57;21.39;33.35
67502;SHT30;54349;52.528;19.760;2023-03-29T00:41:26;21.38;33.27
67502;SHT30;54349;52.528;19.760;2023-03-29T00:43:59;21.37;33.25
67502;SHT30;54349;52.528;19.760;2023-03-29T00:46:32;21.36;33.22
67502;SHT30;54349;52.528;19.760;2023-03-29T00:49:06;21.35;33.23
67502;SHT30;54349;52.528;19.760;2023-03-29T00:51:41;21.34;33.26
67502;SHT30;54349;52.528;19.760;2023-03-29T00:54:13;21.34;33.28
67502;SHT30;54349;52.528;19.760;2023-03-29T00:56:45;21.33;33.18
67502;SHT30;54349;52.528;19.760;2023-03-29T00:59:19;21.32;33.14
67502;SHT30;54349;52.528;19.760;2023-03-29T01:02:02;21.31;33.04
67502;SHT30;54349;52.528;19.760;2023-03-29T01:04:35;21.31;33.09
67502;SHT30;54349;52.528;19.760;2023-03-29T01:07:49;21.29;33.10
67502;SHT30;54349;52.528;19.760;2023-03-29T01:10:47;21.29;33.06
67502;SHT30;54349;52.528;19.760;2023-03-29T01:13:38;21.28;33.07
67502;SHT30;54349;52.528;19.760;2023-03-29T01:16:16;21.27;33.05
67502;SHT30;54349;52.528;19.760;2023-03-29T01:18:49;21.27;33.13
67502;SHT30;54349;52.528;19.760;2023-03-29T01:27:18;21.27;33.07
67502;SHT30;54349;52.528;19.760;2023-03-29T01:30:24;21.25;32.89
67502;SHT30;54349;52.528;19.760;2023-03-29T01:33:00;21.22;32.78
67502;SHT30;54349;52.528;19.760;2023-03-29T01:36:08;21.21;32.86
67502;SHT30;54349;52.528;19.760;2023-03-29T01:39:04;21.19;32.83
67502;SHT30;54349;52.528;19.760;2023-03-29T01:44:54;21.17;32.80
67502;SHT30;54349;52.528;19.760;2023-03-29T01:47:56;21.15;32.82
67502;SHT30;54349;52.528;19.760;2023-03-29T01:53:37;21.12;32.81
67502;SHT30;54349;52.528;19.760;2023-03-29T01:56:13;21.13;32.83
67502;SHT30;54349;52.528;19.760;2023-03-29T01:58:53;21.12;32.81
67502;SHT30;54349;52.528;19.760;2023-03-29T02:01:39;21.11;32.84
67502;SHT30;54349;52.528;19.760;2023-03-29T02:04:29;21.11;32.73
67502;SHT30;54349;52.528;19.760;2023-03-29T02:07:07;21.09;32.67
67502;SHT30;54349;52.528;19.760;2023-03-29T02:09:40;21.07;32.65
67502;SHT30;54349;52.528;19.760;2023-03-29T02:12:10;21.06;32.63
67502;SHT30;54349;52.528;19.760;2023-03-29T02:14:42;21.05;32.54
67502;SHT30;54349;52.528;19.760;2023-03-29T02:19:53;21.02;32.55
67502;SHT30;54349;52.528;19.760;2023-03-29T02:25:31;20.99;32.52
67502;SHT30;54349;52.528;19.760;2023-03-29T02:28:00;20.98;32.53
67502;SHT30;54349;52.528;19.760;2023-03-29T02:30:36;20.96;32.52
67502;SHT30;54349;52.528;19.760;2023-03-29T02:33:36;20.96;32.61
67502;SHT30;54349;52.528;19.760;2023-03-29T02:39:09;20.96;32.59
67502;SHT30;54349;52.528;19.760;2023-03-29T02:41:47;20.96;32.52
67502;SHT30;54349;52.528;19.760;2023-03-29T02:44:19;20.95;32.52
67502;SHT30;54349;52.528;19.760;2023-03-29T02:46:59;20.93;32.44
67502;SHT30;54349;52.528;19.760;2023-03-29T02:49:46;20.91;32.28
67502;SHT30;54349;52.528;19.760;2023-03-29T02:52:15;20.88;32.29
67502;SHT30;54349;52.528;19.760;2023-03-29T02:54:53;20.86;32.28
67502;SHT30;54349;52.528;19.760;2023-03-29T02:57:22;20.85;32.32
67502;SHT30;54349;52.528;19.760;2023-03-29T02:59:54;20.84;32.24
67502;SHT30;54349;52.528;19.760;2023-03-29T03:02:25;20.82;32.08
67502;SHT30;54349;52.528;19.760;2023-03-29T03:04:54;20.80;32.04
67502;SHT30;54349;52.528;19.760;2023-03-29T03:07:24;20.76;32.01
67502;SHT30;54349;52.528;19.760;2023-03-29T03:09:53;20.74;31.94
67502;SHT30;54349;52.528;19.760;2023-03-29T03:12:23;20.72;31.92
67502;SHT30;54349;52.528;19.760;2023-03-29T03:14:52;20.69;31.92
67502;SHT30;54349;52.528;19.760;2023-03-29T03:17:21;20.68;31.94
67502;SHT30;54349;52.528;19.760;2023-03-29T03:19:50;20.66;31.95
67502;SHT30;54349;52.528;19.760;2023-03-29T03:22:18;20.66;32.01
67502;SHT30;54349;52.528;19.760;2023-03-29T03:24:46;20.65;32.10
67502;SHT30;54349;52.528;19.760;2023-03-29T03:27:17;20.66;32.07
67502;SHT30;54349;52.528;19.760;2023-03-29T03:29:45;20.66;31.93
67502;SHT30;54349;52.528;19.760;2023-03-29T03:32:17;20.65;31.88
67502;SHT30;54349;52.528;19.760;2023-03-29T03:35:12;20.65;31.87
67502;SHT30;54349;52.528;19.760;2023-03-29T03:37:40;20.65;31.68
67502;SHT30;54349;52.528;19.760;2023-03-29T03:40:10;20.71;31.53
67502;SHT30;54349;52.528;19.760;2023-03-29T03:42:42;20.77;31.56
67502;SHT30;54349;52.528;19.760;2023-03-29T03:45:11;20.83;31.47
67502;SHT30;54349;52.528;19.760;2023-03-29T03:47:58;20.91;31.44
67502;SHT30;54349;52.528;19.760;2023-03-29T03:50:53;20.97;31.30
67502;SHT30;54349;52.528;19.760;2023-03-29T03:53:29;21.04;31.23
67502;SHT30;54349;52.528;19.760;2023-03-29T03:56:12;21.11;31.20
67502;SHT30;54349;52.528;19.760;2023-03-29T03:59:00;21.20;31.21
67502;SHT30;54349;52.528;19.760;2023-03-29T04:01:55;21.29;31.21
67502;SHT30;54349;52.528;19.760;2023-03-29T04:04:25;21.34;31.09
67502;SHT30;54349;52.528;19.760;2023-03-29T04:07:03;21.39;31.05
67502;SHT30;54349;52.528;19.760;2023-03-29T04:09:50;21.45;31.00
67502;SHT30;54349;52.528;19.760;2023-03-29T04:12:44;21.52;30.91
67502;SHT30;54349;52.528;19.760;2023-03-29T04:15:13;21.57;30.79
67502;SHT30;54349;52.528;19.760;2023-03-29T04:17:51;21.63;30.69
67502;SHT30;54349;52.528;19.760;2023-03-29T04:20:43;21.67;30.68
67502;SHT30;54349;52.528;19.760;2023-03-29T04:23:17;21.72;30.65
67502;SHT30;54349;52.528;19.760;2023-03-29T04:25:45;21.76;30.54
67502;SHT30;54349;52.528;19.760;2023-03-29T04:28:34;21.78;30.44
67502;SHT30;54349;52.528;19.760;2023-03-29T04:31:25;21.83;30.42
67502;SHT30;54349;52.528;19.760;2023-03-29T04:34:31;21.89;30.45
67502;SHT30;54349;52.528;19.760;2023-03-29T04:36:59;21.95;30.61
67502;SHT30;54349;52.528;19.760;2023-03-29T04:39:27;21.99;30.65
67502;SHT30;54349;52.528;19.760;2023-03-29T04:42:03;22.03;30.70
67502;SHT30;54349;52.528;19.760;2023-03-29T04:44:34;22.09;30.70
67502;SHT30;54349;52.528;19.760;2023-03-29T04:47:04;22.14;30.63
67502;SHT30;54349;52.528;19.760;2023-03-29T04:49:42;22.16;30.48
67502;SHT30;54349;52.528;19.760;2023-03-29T04:52:14;22.16;30.37
67502;SHT30;54349;52.528;19.760;2023-03-29T04:54:44;22.18;30.69
67502;SHT30;54349;52.528;19.760;2023-03-29T04:57:19;22.24;32.18
67502;SHT30;54349;52.528;19.760;2023-03-29T05:00:07;22.31;33.26
67502;SHT30;54349;52.528;19.760;2023-03-29T05:02:58;22.37;33.55
67502;SHT30;54349;52.528;19.760;2023-03-29T05:05:31;22.42;33.61
67502;SHT30;54349;52.528;19.760;2023-03-29T05:08:03;22.45;33.27
67502;SHT30;54349;52.528;19.760;2023-03-29T05:10:58;22.45;32.80
67502;SHT30;54349;52.528;19.760;2023-03-29T05:13:28;22.44;32.29
67502;SHT30;54349;52.528;19.760;2023-03-29T05:15:58;22.41;32.11
67502;SHT30;54349;52.528;19.760;2023-03-29T05:18:31;22.41;32.02
67502;SHT30;54349;52.528;19.760;2023-03-29T05:21:00;22.41;31.71
67502;SHT30;54349;52.528;19.760;2023-03-29T05:23:31;22.41;31.46
67502;SHT30;54349;52.528;19.760;2023-03-29T05:26:18;22.41;31.25
67502;SHT30;54349;52.528;19.760;2023-03-29T05:28:49;22.42;31.10
67502;SHT30;54349;52.528;19.760;2023-03-29T05:31:18;22.43;30.98
67502;SHT30;54349;52.528;19.760;2023-03-29T05:33:50;22.39;30.79
67502;SHT30;54349;52.528;19.760;2023-03-29T05:36:19;22.37;30.64
67502;SHT30;54349;52.528;19.760;2023-03-29T05:38:49;22.33;30.48
67502;SHT30;54349;52.528;19.760;2023-03-29T05:41:19;22.31;30.38
67502;SHT30;54349;52.528;19.760;2023-03-29T05:44:06;22.28;30.33
67502;SHT30;54349;52.528;19.760;2023-03-29T05:46:35;22.27;30.18
67502;SHT30;54349;52.528;19.760;2023-03-29T05:49:04;22.27;30.17
67502;SHT30;54349;52.528;19.760;2023-03-29T05:51:46;22.25;30.03
67502;SHT30;54349;52.528;19.760;2023-03-29T05:54:15;22.24;30.84
67502;SHT30;54349;52.528;19.760;2023-03-29T05:56:45;22.19;31.93
67502;SHT30;54349;52.528;19.760;2023-03-29T05:59:14;22.17;32.94
67502;SHT30;54349;52.528;19.760;2023-03-29T06:01:44;22.16;33.86
67502;SHT30;54349;52.528;19.760;2023-03-29T06:04:19;22.16;34.17
67502;SHT30;54349;52.528;19.760;2023-03-29T06:07:06;22.17;34.64
67502;SHT30;54349;52.528;19.760;2023-03-29T06:09:35;22.19;34.71
67502;SHT30;54349;52.528;19.760;2023-03-29T06:12:05;22.18;34.85
67502;SHT30;54349;52.528;19.760;2023-03-29T06:14:40;22.18;34.88
67502;SHT30;54349;52.528;19.760;2023-03-29T06:17:35;22.17;35.11
67502;SHT30;54349;52.528;19.760;2023-03-29T06:20:06;22.17;35.28
67502;SHT30;54349;52.528;19.760;2023-03-29T06:22:40;22.19;35.50
67502;SHT30;54349;52.528;19.760;2023-03-29T06:25:10;22.19;35.45
67502;SHT30;54349;52.528;19.760;2023-03-29T06:27:39;22.18;35.62
67502;SHT30;54349;52.528;19.760;2023-03-29T06:30:08;22.19;35.68
67502;SHT30;54349;52.528;19.760;2023-03-29T06:32:39;22.19;35.75
67502;SHT30;54349;52.528;19.760;2023-03-29T06:35:19;22.17;35.83
67502;SHT30;54349;52.528;19.760;2023-03-29T06:37:55;22.18;36.23
67502;SHT30;54349;52.528;19.760;2023-03-29T06:40:50;22.24;36.38
67502;SHT30;54349;52.528;19.760;2023-03-29T06:43:20;22.27;36.10
67502;SHT30;54349;52.528;19.760;2023-03-29T06:46:06;22.25;35.77
67502;SHT30;54349;52.528;19.760;2023-03-29T06:48:53;22.23;35.70
67502;SHT30;54349;52.528;19.760;2023-03-29T06:51:22;22.21;35.69
67502;SHT30;54349;52.528;19.760;2023-03-29T06:53:50;22.20;36.03
67502;SHT30;54349;52.528;19.760;2023-03-29T06:56:19;22.22;35.94
67502;SHT30;54349;52.528;19.760;2023-03-29T06:58:57;22.20;35.77
67502;SHT30;54349;52.528;19.760;2023-03-29T07:01:58;22.20;35.93
67502;SHT30;54349;52.528;19.760;2023-03-29T07:04:48;22.22;35.95
67502;SHT30;54349;52.528;19.760;2023-03-29T07:07:21;22.23;35.77
67502;SHT30;54349;52.528;19.760;2023-03-29T07:10:07;22.23;35.90
67502;SHT30;54349;52.528;19.760;2023-03-29T07:12:56;22.24;35.83
67502;SHT30;54349;52.528;19.760;2023-03-29T07:15:28;22.26;35.99
67502;SHT30;54349;52.528;19.760;2023-03-29T07:18:19;22.31;36.33
67502;SHT30;54349;52.528;19.760;2023-03-29T07:20:48;22.34;36.22
67502;SHT30;54349;52.528;19.760;2023-03-29T07:23:16;22.37;36.04
67502;SHT30;54349;52.528;19.760;2023-03-29T07:25:45;22.35;35.95
67502;SHT30;54349;52.528;19.760;2023-03-29T07:28:13;22.37;36.01
67502;SHT30;54349;52.528;19.760;2023-03-29T07:30:42;22.39;35.99
67502;SHT30;54349;52.528;19.760;2023-03-29T07:33:12;22.39;35.72
67502;SHT30;54349;52.528;19.760;2023-03-29T07:35:53;22.40;35.75
67502;SHT30;54349;52.528;19.760;2023-03-29T07:38:22;22.41;36.01
67502;SHT30;54349;52.528;19.760;2023-03-29T07:40:57;22.43;35.67
67502;SHT30;54349;52.528;19.760;2023-03-29T07:43:45;22.37;35.26
67502;SHT30;54349;52.528;19.760;2023-03-29T07:46:15;22.37;35.21
67502;SHT30;54349;52.528;19.760;2023-03-29T07:48:44;22.36;34.65
67502;SHT30;54349;52.528;19.760;2023-03-29T07:51:14;22.36;34.89
67502;SHT30;54349;52.528;19.760;2023-03-29T07:53:53;22.40;35.59
67502;SHT30;54349;52.528;19.760;2023-03-29T07:56:37;22.44;35.63
67502;SHT30;54349;52.528;19.760;2023-03-29T07:59:12;22.45;35.49
67502;SHT30;54349;52.528;19.760;2023-03-29T08:01:42;22.47;35.56
67502;SHT30;54349;52.528;19.760;2023-03-29T08:04:39;22.46;35.10
67502;SHT30;54349;52.528;19.760;2023-03-29T08:07:15;22.44;35.19
67502;SHT30;54349;52.528;19.760;2023-03-29T08:10:08;22.45;34.93
67502;SHT30;54349;52.528;19.760;2023-03-29T08:12:52;22.45;35.44
67502;SHT30;54349;52.528;19.760;2023-03-29T08:15:45;22.47;34.93
67502;SHT30;54349;52.528;19.760;2023-03-29T08:18:30;22.45;35.24
67502;SHT30;54349;52.528;19.760;2023-03-29T08:21:02;22.47;35.57
67502;SHT30;54349;52.528;19.760;2023-03-29T08:23:32;22.52;35.59
67502;SHT30;54349;52.528;19.760;2023-03-29T08:26:21;22.56;35.36
67502;SHT30;54349;52.528;19.760;2023-03-29T08:28:50;22.58;35.53
67502;SHT30;54349;52.528;19.760;2023-03-29T08:31:19;22.61;35.78
67502;SHT30;54349;52.528;19.760;2023-03-29T08:33:48;22.64;35.42
67502;SHT30;54349;52.528;19.760;2023-03-29T08:36:52;22.63;35.41
67502;SHT30;54349;52.528;19.760;2023-03-29T08:39:26;22.65;35.77
67502;SHT30;54349;52.528;19.760;2023-03-29T08:42:24;22.69;35.38
67502;SHT30;54349;52.528;19.760;2023-03-29T08:49:33;22.62;34.55
67502;SHT30;54349;52.528;19.760;2023-03-29T08:52:21;22.62;34.48
67502;SHT30;54349;52.528;19.760;2023-03-29T08:55:32;22.60;34.48
67502;SHT30;54349;52.528;19.760;2023-03-29T08:58:52;22.63;34.77
67502;SHT30;54349;52.528;19.760;2023-03-29T09:01:27;22.65;34.26
67502;SHT30;54349;52.528;19.760;2023-03-29T09:04:04;22.65;34.70
67502;SHT30;54349;52.528;19.760;2023-03-29T09:07:09;22.68;34.96
67502;SHT30;54349;52.528;19.760;2023-03-29T09:09:42;22.69;34.78
67502;SHT30;54349;52.528;19.760;2023-03-29T09:12:25;22.71;34.63
67502;SHT30;54349;52.528;19.760;2023-03-29T09:19:28;22.73;34.90
67502;SHT30;54349;52.528;19.760;2023-03-29T09:26:40;22.84;35.53
67502;SHT30;54349;52.528;19.760;2023-03-29T09:29:35;22.90;35.66
67502;SHT30;54349;52.528;19.760;2023-03-29T09:32:30;22.94;35.54
67502;SHT30;54349;52.528;19.760;2023-03-29T09:35:21;22.95;34.88
67502;SHT30;54349;52.528;19.760;2023-03-29T09:38:11;22.93;34.48
67502;SHT30;54349;52.528;19.760;2023-03-29T09:40:50;22.94;35.19
67502;SHT30;54349;52.528;19.760;2023-03-29T09:43:35;23.00;35.25
67502;SHT30;54349;52.528;19.760;2023-03-29T09:46:20;23.04;35.16
67502;SHT30;54349;52.528;19.760;2023-03-29T09:49:05;23.03;34.24
67502;SHT30;54349;52.528;19.760;2023-03-29T09:51:45;23.02;34.28
67502;SHT30;54349;52.528;19.760;2023-03-29T09:54:17;23.02;34.44
67502;SHT30;54349;52.528;19.760;2023-03-29T09:57:12;23.05;34.66
67502;SHT30;54349;52.528;19.760;2023-03-29T09:59:45;23.07;34.42
67502;SHT30;54349;52.528;19.760;2023-03-29T10:02:18;23.05;33.67
67502;SHT30;54349;52.528;19.760;2023-03-29T10:04:52;23.06;34.24
67502;SHT30;54349;52.528;19.760;2023-03-29T10:07:40;23.07;34.07
67502;SHT30;54349;52.528;19.760;2023-03-29T10:10:19;23.09;34.58
67502;SHT30;54349;52.528;19.760;2023-03-29T10:13:02;23.11;34.87
67502;SHT30;54349;52.528;19.760;2023-03-29T10:15:37;23.15;34.95
67502;SHT30;54349;52.528;19.760;2023-03-29T10:18:06;23.17;34.65
67502;SHT30;54349;52.528;19.760;2023-03-29T10:20:40;23.20;34.64
67502;SHT30;54349;52.528;19.760;2023-03-29T10:23:15;23.22;34.16
67502;SHT30;54349;52.528;19.760;2023-03-29T10:25:46;23.24;34.73
67502;SHT30;54349;52.528;19.760;2023-03-29T10:28:16;23.26;34.38
67502;SHT30;54349;52.528;19.760;2023-03-29T10:30:53;23.26;33.95
67502;SHT30;54349;52.528;19.760;2023-03-29T10:33:30;23.27;34.01
67502;SHT30;54349;52.528;19.760;2023-03-29T10:36:02;23.27;33.91
67502;SHT30;54349;52.528;19.760;2023-03-29T10:38:34;23.28;34.10
67502;SHT30;54349;52.528;19.760;2023-03-29T10:41:09;23.31;34.15
67502;SHT30;54349;52.528;19.760;2023-03-29T10:43:45;23.34;34.30
67502;SHT30;54349;52.528;19.760;2023-03-29T10:46:22;23.36;34.14
67502;SHT30;54349;52.528;19.760;2023-03-29T10:49:00;23.38;34.00
67502;SHT30;54349;52.528;19.760;2023-03-29T10:51:33;23.39;33.55
67502;SHT30;54349;52.528;19.760;2023-03-29T10:54:02;23.40;34.26
67502;SHT30;54349;52.528;19.760;2023-03-29T10:56:39;23.43;34.37
67502;SHT30;54349;52.528;19.760;2023-03-29T10:59:37;23.45;34.31
67502;SHT30;54349;52.528;19.760;2023-03-29T11:02:23;23.48;34.46
67502;SHT30;54349;52.528;19.760;2023-03-29T11:08:25;23.54;34.27
67502;SHT30;54349;52.528;19.760;2023-03-29T11:14:38;23.57;33.63
67502;SHT30;54349;52.528;19.760;2023-03-29T11:17:47;23.58;33.85
67502;SHT30;54349;52.528;19.760;2023-03-29T11:20:27;23.61;34.64
67502;SHT30;54349;52.528;19.760;2023-03-29T11:26:10;23.67;33.98
67502;SHT30;54349;52.528;19.760;2023-03-29T11:32:44;23.70;34.07
67502;SHT30;54349;52.528;19.760;2023-03-29T11:41:17;23.83;35.21
67502;SHT30;54349;52.528;19.760;2023-03-29T11:44:21;23.89;35.28
67502;SHT30;54349;52.528;19.760;2023-03-29T11:47:01;23.95;35.43
67502;SHT30;54349;52.528;19.760;2023-03-29T11:49:47;24.00;35.00
67502;SHT30;54349;52.528;19.760;2023-03-29T11:52:28;24.03;35.28
67502;SHT30;54349;52.528;19.760;2023-03-29T12:03:30;24.15;35.84
67502;SHT30;54349;52.528;19.760;2023-03-29T12:06:45;24.19;35.95
67502;SHT30;54349;52.528;19.760;2023-03-29T12:12:32;24.24;35.99
67502;SHT30;54349;52.528;19.760;2023-03-29T12:15:38;24.27;36.03
67502;SHT30;54349;52.528;19.760;2023-03-29T12:18:19;24.30;36.07
67502;SHT30;54349;52.528;19.760;2023-03-29T12:20:57;24.32;36.06
67502;SHT30;54349;52.528;19.760;2023-03-29T12:23:30;24.35;36.04
67502;SHT30;54349;52.528;19.760;2023-03-29T12:32:01;24.43;36.11
67502;SHT30;54349;52.528;19.760;2023-03-29T12:38:35;24.50;36.56
67502;SHT30;54349;52.528;19.760;2023-03-29T12:41:23;24.53;36.59
67502;SHT30;54349;52.528;19.760;2023-03-29T12:44:25;24.56;36.61
67502;SHT30;54349;52.528;19.760;2023-03-29T12:47:03;24.59;36.65
67502;SHT30;54349;52.528;19.760;2023-03-29T12:49:32;24.62;36.74
67502;SHT30;54349;52.528;19.760;2023-03-29T12:52:13;24.65;36.80
67502;SHT30;54349;52.528;19.760;2023-03-29T12:55:28;24.69;36.72
67502;SHT30;54349;52.528;19.760;2023-03-29T12:58:06;24.71;36.81
67502;SHT30;54349;52.528;19.760;2023-03-29T13:01:08;24.74;36.87
67502;SHT30;54349;52.528;19.760;2023-03-29T13:04:12;24.78;36.87
67502;SHT30;54349;52.528;19.760;2023-03-29T13:06:59;24.80;36.78
67502;SHT30;54349;52.528;19.760;2023-03-29T13:09:33;24.83;36.78
67502;SHT30;54349;52.528;19.760;2023-03-29T13:15:00;24.89;36.62
67502;SHT30;54349;52.528;19.760;2023-03-29T13:23:47;24.96;35.73
67502;SHT30;54349;52.528;19.760;2023-03-29T13:27:02;24.99;35.88
67502;SHT30;54349;52.528;19.760;2023-03-29T13:36:46;25.06;36.10
67502;SHT30;54349;52.528;19.760;2023-03-29T13:39:19;25.06;36.05
67502;SHT30;54349;52.528;19.760;2023-03-29T13:41:52;25.08;36.00
67502;SHT30;54349;52.528;19.760;2023-03-29T13:44:39;25.08;36.02
67502;SHT30;54349;52.528;19.760;2023-03-29T13:47:14;25.08;35.69
67502;SHT30;54349;52.528;19.760;2023-03-29T13:50:37;25.07;35.53
67502;SHT30;54349;52.528;19.760;2023-03-29T13:53:13;25.08;35.49
67502;SHT30;54349;52.528;19.760;2023-03-29T13:55:58;25.08;35.35
67502;SHT30;54349;52.528;19.760;2023-03-29T13:58:50;25.07;35.30
67502;SHT30;54349;52.528;19.760;2023-03-29T14:01:34;25.07;35.11
67502;SHT30;54349;52.528;19.760;2023-03-29T14:04:31;25.07;35.02
67502;SHT30;54349;52.528;19.760;2023-03-29T14:07:11;25.07;34.91
67502;SHT30;54349;52.528;19.760;2023-03-29T14:09:43;25.09;34.91
67502;SHT30;54349;52.528;19.760;2023-03-29T14:12:17;25.09;34.75
67502;SHT30;54349;52.528;19.760;2023-03-29T14:14:46;25.09;34.58
67502;SHT30;54349;52.528;19.760;2023-03-29T14:17:26;25.09;34.59
67502;SHT30;54349;52.528;19.760;2023-03-29T14:19:56;25.09;34.54
67502;SHT30;54349;52.528;19.760;2023-03-29T14:22:31;25.07;34.42
67502;SHT30;54349;52.528;19.760;2023-03-29T14:25:04;25.07;34.39
67502;SHT30;54349;52.528;19.760;2023-03-29T14:27:40;25.06;34.37
67502;SHT30;54349;52.528;19.760;2023-03-29T14:30:26;25.04;34.31
67502;SHT30;54349;52.528;19.760;2023-03-29T14:32:55;25.03;34.29
67502;SHT30;54349;52.528;19.760;2023-03-29T14:35:26;25.01;34.26
67502;SHT30;54349;52.528;19.760;2023-03-29T14:38:01;25.00;34.21
67502;SHT30;54349;52.528;19.760;2023-03-29T14:40:32;25.00;34.12
67502;SHT30;54349;52.528;19.760;2023-03-29T14:43:03;24.98;34.09
67502;SHT30;54349;52.528;19.760;2023-03-29T14:45:34;24.97;34.09
67502;SHT30;54349;52.528;19.760;2023-03-29T14:48:04;24.96;34.03
67502;SHT30;54349;52.528;19.760;2023-03-29T14:50:34;24.95;34.02
67502;SHT30;54349;52.528;19.760;2023-03-29T14:53:03;24.95;33.99
67502;SHT30;54349;52.528;19.760;2023-03-29T14:55:35;24.95;33.96
67502;SHT30;54349;52.528;19.760;2023-03-29T14:58:16;24.95;33.74
67502;SHT30;54349;52.528;19.760;2023-03-29T15:00:55;24.95;33.58
67502;SHT30;54349;52.528;19.760;2023-03-29T15:03:40;24.94;33.46
67502;SHT30;54349;52.528;19.760;2023-03-29T15:06:11;24.92;33.26
67502;SHT30;54349;52.528;19.760;2023-03-29T15:08:41;24.91;33.16
67502;SHT30;54349;52.528;19.760;2023-03-29T15:11:30;24.90;33.26
67502;SHT30;54349;52.528;19.760;2023-03-29T15:14:07;24.88;33.21
67502;SHT30;54349;52.528;19.760;2023-03-29T15:16:42;24.87;33.11
67502;SHT30;54349;52.528;19.760;2023-03-29T15:19:18;24.85;33.14
67502;SHT30;54349;52.528;19.760;2023-03-29T15:21:50;24.83;33.09
67502;SHT30;54349;52.528;19.760;2023-03-29T15:24:29;24.82;33.04
67502;SHT30;54349;52.528;19.760;2023-03-29T15:27:15;24.80;33.12
67502;SHT30;54349;52.528;19.760;2023-03-29T15:29:46;24.78;33.21
67502;SHT30;54349;52.528;19.760;2023-03-29T15:32:30;24.76;33.24
67502;SHT30;54349;52.528;19.760;2023-03-29T15:35:04;24.74;33.16
67502;SHT30;54349;52.528;19.760;2023-03-29T15:37:36;24.72;33.23
67502;SHT30;54349;52.528;19.760;2023-03-29T15:40:11;24.71;33.19
67502;SHT30;54349;52.528;19.760;2023-03-29T15:42:50;24.69;33.16
67502;SHT30;54349;52.528;19.760;2023-03-29T15:45:28;24.70;32.97
67502;SHT30;54349;52.528;19.760;2023-03-29T15:47:57;24.71;33.16
67502;SHT30;54349;52.528;19.760;2023-03-29T15:50:34;24.71;33.13
67502;SHT30;54349;52.528;19.760;2023-03-29T15:53:03;24.71;33.14
67502;SHT30;54349;52.528;19.760;2023-03-29T15:55:44;24.71;33.11
67502;SHT30;54349;52.528;19.760;2023-03-29T15:58:17;24.69;33.12
67502;SHT30;54349;52.528;19.760;2023-03-29T16:00:56;24.68;33.02
67502;SHT30;54349;52.528;19.760;2023-03-29T16:03:40;24.65;33.06
67502;SHT30;54349;52.528;19.760;2023-03-29T16:06:15;24.65;33.13
67502;SHT30;54349;52.528;19.760;2023-03-29T16:08:49;24.61;33.16
67502;SHT30;54349;52.528;19.760;2023-03-29T16:11:17;24.60;33.18
67502;SHT30;54349;52.528;19.760;2023-03-29T16:13:46;24.58;33.21
67502;SHT30;54349;52.528;19.760;2023-03-29T16:16:16;24.56;33.22
67502;SHT30;54349;52.528;19.760;2023-03-29T16:18:45;24.53;33.27
67502;SHT30;54349;52.528;19.760;2023-03-29T16:21:15;24.51;33.16
67502;SHT30;54349;52.528;19.760;2023-03-29T16:23:47;24.50;33.13
67502;SHT30;54349;52.528;19.760;2023-03-29T16:26:16;24.46;33.26
67502;SHT30;54349;52.528;19.760;2023-03-29T16:28:44;24.45;33.24
67502;SHT30;54349;52.528;19.760;2023-03-29T16:31:16;24.42;33.27
67502;SHT30;54349;52.528;19.760;2023-03-29T16:33:45;24.40;33.29
67502;SHT30;54349;52.528;19.760;2023-03-29T16:36:16;24.38;33.31
67502;SHT30;54349;52.528;19.760;2023-03-29T16:38:45;24.36;33.32
67502;SHT30;54349;52.528;19.760;2023-03-29T16:41:16;24.33;33.30
67502;SHT30;54349;52.528;19.760;2023-03-29T16:43:44;24.32;33.26
67502;SHT30;54349;52.528;19.760;2023-03-29T16:46:15;24.30;33.33
67502;SHT30;54349;52.528;19.760;2023-03-29T16:48:43;24.27;33.36
67502;SHT30;54349;52.528;19.760;2023-03-29T16:51:11;24.25;33.37
67502;SHT30;54349;52.528;19.760;2023-03-29T16:53:40;24.24;33.40
67502;SHT30;54349;52.528;19.760;2023-03-29T16:56:11;24.21;33.40
67502;SHT30;54349;52.528;19.760;2023-03-29T16:58:39;24.20;33.43
67502;SHT30;54349;52.528;19.760;2023-03-29T17:01:10;24.17;33.45
67502;SHT30;54349;52.528;19.760;2023-03-29T17:03:47;24.16;33.49
67502;SHT30;54349;52.528;19.760;2023-03-29T17:06:15;24.14;33.50
67502;SHT30;54349;52.528;19.760;2023-03-29T17:08:43;24.12;33.54
67502;SHT30;54349;52.528;19.760;2023-03-29T17:11:12;24.10;33.53
67502;SHT30;54349;52.528;19.760;2023-03-29T17:13:42;24.08;33.55
67502;SHT30;54349;52.528;19.760;2023-03-29T17:16:15;24.06;33.54
67502;SHT30;54349;52.528;19.760;2023-03-29T17:18:44;24.04;33.59
67502;SHT30;54349;52.528;19.760;2023-03-29T17:21:13;24.02;33.60
67502;SHT30;54349;52.528;19.760;2023-03-29T17:23:41;24.00;33.62
67502;SHT30;54349;52.528;19.760;2023-03-29T17:26:10;24.00;33.61
67502;SHT30;54349;52.528;19.760;2023-03-29T17:28:39;23.98;33.62
67502;SHT30;54349;52.528;19.760;2023-03-29T17:31:12;23.96;33.62
67502;SHT30;54349;52.528;19.760;2023-03-29T17:33:41;23.94;33.63
67502;SHT30;54349;52.528;19.760;2023-03-29T17:36:09;23.92;33.65
67502;SHT30;54349;52.528;19.760;2023-03-29T17:38:38;23.90;33.67
67502;SHT30;54349;52.528;19.760;2023-03-29T17:41:08;23.88;33.67
67502;SHT30;54349;52.528;19.760;2023-03-29T17:43:38;23.87;33.65
67502;SHT30;54349;52.528;19.760;2023-03-29T17:46:08;23.86;33.67
67502;SHT30;54349;52.528;19.760;2023-03-29T17:48:36;23.86;33.67
67502;SHT30;54349;52.528;19.760;2023-03-29T17:51:05;23.86;33.68